createdAt,value
2022-07-29T00:01:54.073Z,25.95
2022-07-29T00:04:21.947Z,26.01
2022-07-29T00:06:49.706Z,25.30
2022-07-29T00:09:19.608Z,26.63
2022-07-29T00:11:48.560Z,27.13
2022-07-29T00:14:16.342Z,27.58
2022-07-29T00:16:44.217Z,27.83
2022-07-29T00:19:11.618Z,27.51
2022-07-29T00:21:40.051Z,27.61
2022-07-29T00:24:09.987Z,27.96
2022-07-29T00:26:37.464Z,28.14
2022-07-29T00:31:56.323Z,27.09
2022-07-29T00:34:42.558Z,27.72
2022-07-29T00:37:17.018Z,27.64
2022-07-29T00:39:44.528Z,26.79
2022-07-29T00:42:12.241Z,26.83
2022-07-29T00:44:40.846Z,26.60
2022-07-29T00:47:10.178Z,26.52
2022-07-29T00:49:39.962Z,26.16
2022-07-29T00:52:08.861Z,25.44
2022-07-29T00:54:39.838Z,25.07
2022-07-29T00:57:13.006Z,26.02
2022-07-29T00:59:40.653Z,26.27
2022-07-29T01:02:08.183Z,25.43
2022-07-29T01:04:36.393Z,25.27
2022-07-29T01:07:05.567Z,25.63
2022-07-29T01:09:46.069Z,25.92
2022-07-29T01:12:24.581Z,25.72
2022-07-29T01:14:53.352Z,25.29
2022-07-29T01:17:53.226Z,25.75
2022-07-29T01:20:54.324Z,26.97
2022-07-29T01:23:39.868Z,26.95
2022-07-29T01:26:15.618Z,26.84
2022-07-29T01:28:58.574Z,26.67
2022-07-29T01:31:59.219Z,26.63
2022-07-29T01:34:58.098Z,26.39
2022-07-29T01:37:41.044Z,26.03
2022-07-29T01:40:20.142Z,25.88
2022-07-29T01:42:54.035Z,25.97
2022-07-29T01:45:33.582Z,25.65
2022-07-29T01:48:14.859Z,25.17
2022-07-29T01:50:49.894Z,25.73
2022-07-29T01:53:25.354Z,25.56
2022-07-29T01:55:54.389Z,25.87
2022-07-29T01:58:32.654Z,26.34
2022-07-29T02:01:03.161Z,26.81
2022-07-29T02:03:33.834Z,26.44
2022-07-29T02:06:04.511Z,25.78
2022-07-29T02:08:34.047Z,26.14
2022-07-29T02:11:03.885Z,26.31
2022-07-29T02:13:33.294Z,26.00
2022-07-29T02:16:02.982Z,25.35
2022-07-29T02:18:32.104Z,25.17
2022-07-29T02:21:02.412Z,24.55
2022-07-29T02:23:31.852Z,24.69
2022-07-29T02:26:20.640Z,25.50
2022-07-29T02:28:49.623Z,25.81
2022-07-29T02:31:20.082Z,25.62
2022-07-29T02:33:49.608Z,25.48
2022-07-29T02:36:17.892Z,25.33
2022-07-29T02:38:52.330Z,25.30
2022-07-29T02:41:30.871Z,24.68
2022-07-29T02:44:05.518Z,24.31
2022-07-29T02:46:35.973Z,24.80
2022-07-29T02:49:23.346Z,25.34
2022-07-29T02:52:02.479Z,25.80
2022-07-29T02:54:43.737Z,26.19
2022-07-29T02:57:20.739Z,25.97
2022-07-29T02:59:51.909Z,25.56
2022-07-29T03:02:20.205Z,24.71
2022-07-29T03:04:50.466Z,24.58
2022-07-29T03:07:20.794Z,24.43
2022-07-29T03:09:48.684Z,24.13
2022-07-29T03:12:17.454Z,23.75
2022-07-29T03:14:45.145Z,23.65
2022-07-29T03:17:13.210Z,24.55
2022-07-29T03:19:41.282Z,25.05
2022-07-29T03:22:08.858Z,25.35
2022-07-29T03:24:38.014Z,25.26
2022-07-29T03:27:06.539Z,24.96
2022-07-29T03:29:34.892Z,24.72
2022-07-29T03:32:07.212Z,23.86
2022-07-29T03:34:37.073Z,23.54
2022-07-29T03:37:06.716Z,23.47
2022-07-29T03:39:40.423Z,23.57
2022-07-29T03:42:10.029Z,24.10
2022-07-29T03:44:40.187Z,24.34
2022-07-29T03:47:09.523Z,23.78
2022-07-29T03:49:39.225Z,23.87
2022-07-29T03:52:07.510Z,24.65
2022-07-29T03:54:35.297Z,24.99
2022-07-29T03:57:04.964Z,24.90
2022-07-29T03:59:35.142Z,25.10
2022-07-29T04:02:04.770Z,24.51
2022-07-29T04:04:39.017Z,24.01
2022-07-29T04:07:06.521Z,23.70
2022-07-29T04:09:34.348Z,24.23
2022-07-29T04:12:04.093Z,24.91
2022-07-29T04:14:33.948Z,25.19
2022-07-29T04:17:03.134Z,24.65
2022-07-29T04:19:31.211Z,24.40
2022-07-29T04:21:59.901Z,25.17
2022-07-29T04:24:27.368Z,26.09
2022-07-29T04:26:55.679Z,25.90
2022-07-29T04:29:23.033Z,25.41
2022-07-29T04:31:50.384Z,25.40
2022-07-29T04:34:18.308Z,24.97
2022-07-29T04:36:46.434Z,24.24
2022-07-29T04:39:17.063Z,24.02
2022-07-29T04:41:47.361Z,24.20
2022-07-29T04:44:15.220Z,24.28
2022-07-29T04:46:45.761Z,24.96
2022-07-29T04:49:13.220Z,25.96
2022-07-29T04:51:40.587Z,26.82
2022-07-29T04:54:07.885Z,28.00
2022-07-29T04:56:35.269Z,29.02
2022-07-29T04:59:02.596Z,29.05
2022-07-29T05:01:30.092Z,29.20
2022-07-29T05:04:00.507Z,28.98
2022-07-29T05:06:28.229Z,28.53
2022-07-29T05:08:55.452Z,28.35
2022-07-29T05:11:26.124Z,28.37
2022-07-29T05:13:57.391Z,28.64
2022-07-29T05:16:24.801Z,28.66
2022-07-29T05:18:52.361Z,28.76
2022-07-29T05:21:19.708Z,28.72
2022-07-29T05:23:47.206Z,28.95
2022-07-29T05:26:14.532Z,29.04
2022-07-29T05:28:41.886Z,29.32
2022-07-29T05:31:09.305Z,28.88
2022-07-29T05:33:37.248Z,28.98
2022-07-29T05:36:09.135Z,29.16
2022-07-29T05:38:37.422Z,29.13
2022-07-29T05:41:06.581Z,29.32
2022-07-29T05:43:34.431Z,29.30
2022-07-29T05:46:02.254Z,29.35
2022-07-29T05:48:31.909Z,29.93
2022-07-29T05:50:59.311Z,29.30
2022-07-29T05:53:29.226Z,29.38
2022-07-29T05:55:58.071Z,29.62
2022-07-29T05:58:25.504Z,29.62
2022-07-29T06:00:54.092Z,29.36
2022-07-29T06:03:21.445Z,28.91
2022-07-29T06:05:48.806Z,29.00
2022-07-29T06:08:16.126Z,29.23
2022-07-29T06:10:43.510Z,29.91
2022-07-29T06:13:11.035Z,30.00
2022-07-29T06:15:47.812Z,30.36
2022-07-29T06:18:15.231Z,30.76
2022-07-29T06:20:43.286Z,30.96
2022-07-29T06:23:11.256Z,30.86
2022-07-29T06:25:38.991Z,30.87
2022-07-29T06:28:06.489Z,31.20
2022-07-29T06:30:43.549Z,31.39
2022-07-29T06:33:35.412Z,30.96
2022-07-29T06:36:06.357Z,30.99
2022-07-29T06:38:42.108Z,30.61
2022-07-29T06:41:15.673Z,30.93
2022-07-29T06:43:52.509Z,31.75
2022-07-29T06:46:23.574Z,32.93
2022-07-29T06:48:53.062Z,33.14
2022-07-29T06:51:23.287Z,33.23
2022-07-29T06:54:00.094Z,32.36
2022-07-29T06:56:38.979Z,32.57
2022-07-29T06:59:11.536Z,32.83
2022-07-29T07:01:40.639Z,33.29
2022-07-29T07:04:09.988Z,33.07
2022-07-29T07:06:37.809Z,32.82
2022-07-29T07:09:05.521Z,32.91
2022-07-29T07:11:32.964Z,33.13
2022-07-29T07:14:14.485Z,32.62
2022-07-29T07:16:44.824Z,32.42
2022-07-29T07:19:12.161Z,32.51
2022-07-29T07:21:41.732Z,32.54
2022-07-29T07:24:09.154Z,32.46
2022-07-29T07:26:36.824Z,32.99
2022-07-29T07:29:04.206Z,33.19
2022-07-29T07:31:31.723Z,33.33
2022-07-29T07:33:59.336Z,33.67
2022-07-29T07:36:26.756Z,33.44
2022-07-29T07:38:54.031Z,32.54
2022-07-29T07:41:50.407Z,33.64
2022-07-29T07:44:21.012Z,33.41
2022-07-29T07:46:48.593Z,34.21
2022-07-29T07:49:18.169Z,34.73
2022-07-29T07:51:50.828Z,34.00
2022-07-29T07:54:20.796Z,34.13
2022-07-29T07:56:53.074Z,33.87
2022-07-29T07:59:20.838Z,33.94
2022-07-29T08:01:55.630Z,33.94
2022-07-29T08:04:28.260Z,33.35
2022-07-29T08:06:58.011Z,33.16
2022-07-29T08:09:29.729Z,33.60
2022-07-29T08:11:58.889Z,33.36
2022-07-29T08:14:57.993Z,33.84
2022-07-29T08:17:25.377Z,33.44
2022-07-29T08:19:52.731Z,33.51
2022-07-29T08:22:20.085Z,34.63
2022-07-29T08:25:05.303Z,34.89
2022-07-29T08:27:43.391Z,34.95
2022-07-29T08:30:11.862Z,35.56
2022-07-29T08:32:55.710Z,35.43
2022-07-29T08:35:24.633Z,35.42
2022-07-29T08:37:53.173Z,36.24
2022-07-29T08:40:31.983Z,37.11
2022-07-29T08:43:05.437Z,35.31
2022-07-29T08:45:51.308Z,36.22
2022-07-29T08:48:23.085Z,36.64
2022-07-29T08:50:56.653Z,36.23
2022-07-29T08:53:28.043Z,35.71
2022-07-29T08:55:56.481Z,35.11
2022-07-29T08:58:25.551Z,35.09
2022-07-29T09:00:56.031Z,34.66
2022-07-29T09:03:32.728Z,35.64
2022-07-29T09:06:01.052Z,35.83
2022-07-29T09:08:29.466Z,35.64
2022-07-29T09:11:01.245Z,36.87
2022-07-29T09:13:31.509Z,35.69
2022-07-29T09:15:59.066Z,36.47
2022-07-29T09:18:36.478Z,36.63
2022-07-29T09:21:23.975Z,36.31
2022-07-29T09:24:06.703Z,35.68
2022-07-29T09:26:37.221Z,35.06
2022-07-29T09:29:14.015Z,34.70
2022-07-29T09:31:45.916Z,34.59
2022-07-29T09:34:16.082Z,34.86
2022-07-29T09:36:46.117Z,35.31
2022-07-29T09:39:15.590Z,35.33
2022-07-29T09:41:47.702Z,35.04
2022-07-29T09:44:16.006Z,35.65
2022-07-29T09:47:08.448Z,35.34
2022-07-29T09:50:00.656Z,35.89
2022-07-29T09:52:29.883Z,34.68
2022-07-29T09:55:17.947Z,34.91
2022-07-29T09:57:49.490Z,35.59
2022-07-29T10:00:19.344Z,36.62
2022-07-29T10:02:47.857Z,36.33
2022-07-29T10:05:26.981Z,36.10
2022-07-29T10:08:04.888Z,35.67
2022-07-29T10:10:38.163Z,36.44
2022-07-29T10:13:12.233Z,36.04
2022-07-29T10:15:46.987Z,35.22
2022-07-29T10:18:18.680Z,35.47
2022-07-29T10:20:46.647Z,36.71
2022-07-29T10:23:17.091Z,36.47
2022-07-29T10:25:46.817Z,36.28
2022-07-29T10:28:16.523Z,36.27
2022-07-29T10:30:46.442Z,37.29
2022-07-29T10:33:35.244Z,38.03
2022-07-29T10:36:14.785Z,36.39
2022-07-29T10:39:06.559Z,35.50
2022-07-29T10:42:06.770Z,35.02
2022-07-29T10:44:40.848Z,35.44
2022-07-29T10:47:08.327Z,35.49
2022-07-29T10:49:35.951Z,35.56
2022-07-29T10:52:08.142Z,35.43
2022-07-29T10:54:42.339Z,36.33
2022-07-29T10:57:25.701Z,35.32
2022-07-29T11:03:04.518Z,35.46
2022-07-29T11:05:56.350Z,35.55
2022-07-29T11:08:28.168Z,35.60
2022-07-29T11:11:22.856Z,36.33
2022-07-29T11:13:57.400Z,35.86
2022-07-29T11:16:27.111Z,35.29
2022-07-29T11:19:13.335Z,35.63
2022-07-29T11:21:54.045Z,35.51
2022-07-29T11:24:29.452Z,35.49
2022-07-29T11:27:35.206Z,35.89
2022-07-29T11:30:04.911Z,35.43
2022-07-29T11:32:41.209Z,34.74
2022-07-29T11:35:38.280Z,34.39
2022-07-29T11:38:28.117Z,35.64
2022-07-29T11:41:27.929Z,35.83
2022-07-29T11:44:02.907Z,34.85
2022-07-29T11:46:50.668Z,34.41
2022-07-29T11:52:15.024Z,35.37
2022-07-29T11:54:58.178Z,34.85
2022-07-29T11:57:36.345Z,34.58
2022-07-29T12:03:01.907Z,35.36
2022-07-29T12:05:48.261Z,35.02
2022-07-29T12:08:21.871Z,34.98
2022-07-29T12:10:51.877Z,35.78
2022-07-29T12:13:22.191Z,36.02
2022-07-29T12:16:00.090Z,35.63
2022-07-29T12:18:28.227Z,36.24
2022-07-29T12:21:03.583Z,35.70
2022-07-29T12:23:35.034Z,35.84
2022-07-29T12:26:10.606Z,35.54
2022-07-29T12:28:40.005Z,35.65
2022-07-29T12:31:14.287Z,35.22
2022-07-29T12:33:42.455Z,35.58
2022-07-29T12:36:14.186Z,35.77
2022-07-29T12:38:45.848Z,35.38
2022-07-29T12:41:14.034Z,35.12
2022-07-29T12:43:54.253Z,35.83
2022-07-29T12:46:21.903Z,35.17
2022-07-29T12:48:57.786Z,35.60
2022-07-29T12:51:41.886Z,35.85
2022-07-29T12:54:16.508Z,35.29
2022-07-29T12:56:45.904Z,35.02
2022-07-29T12:59:18.836Z,36.00
2022-07-29T13:01:54.527Z,35.40
2022-07-29T13:04:37.812Z,35.58
2022-07-29T13:07:10.505Z,35.21
2022-07-29T13:09:39.308Z,34.47
2022-07-29T13:12:11.365Z,34.11
2022-07-29T13:14:41.822Z,33.84
2022-07-29T13:17:20.497Z,34.41
2022-07-29T13:19:48.894Z,34.91
2022-07-29T13:22:24.412Z,35.75
2022-07-29T13:24:57.068Z,35.24
2022-07-29T13:27:29.272Z,34.25
2022-07-29T13:29:58.925Z,34.16
2022-07-29T13:32:29.066Z,34.01
2022-07-29T13:34:58.038Z,34.37
2022-07-29T13:37:25.849Z,34.42
2022-07-29T13:39:54.244Z,33.78
2022-07-29T13:42:23.206Z,33.92
2022-07-29T13:44:52.828Z,34.36
2022-07-29T13:47:21.292Z,34.20
2022-07-29T13:49:49.413Z,34.00
2022-07-29T13:52:17.232Z,34.03
2022-07-29T13:54:45.212Z,34.09
2022-07-29T13:57:13.620Z,33.74
2022-07-29T13:59:43.159Z,33.43
2022-07-29T14:02:12.253Z,33.67
2022-07-29T14:04:44.339Z,34.07
2022-07-29T14:07:11.777Z,34.17
2022-07-29T14:09:43.989Z,34.00
2022-07-29T14:12:11.435Z,33.79
2022-07-29T14:14:38.867Z,33.56
2022-07-29T14:17:07.804Z,33.35
2022-07-29T14:19:39.648Z,33.36
2022-07-29T14:22:08.662Z,33.66
2022-07-29T14:24:37.717Z,34.37
2022-07-29T14:27:06.664Z,34.83
2022-07-29T14:29:35.259Z,34.72
2022-07-29T14:32:08.020Z,34.53
2022-07-29T14:34:36.801Z,34.11
2022-07-29T14:37:06.921Z,33.79
2022-07-29T14:39:42.333Z,33.86
2022-07-29T14:42:12.865Z,33.99
2022-07-29T14:44:42.776Z,33.97
2022-07-29T14:47:10.735Z,33.86
2022-07-29T14:49:38.149Z,33.52
2022-07-29T14:52:05.935Z,33.27
2022-07-29T14:54:33.518Z,33.32
2022-07-29T14:57:01.045Z,33.23
2022-07-29T14:59:28.497Z,33.15
2022-07-29T15:01:56.296Z,33.30
2022-07-29T15:04:24.153Z,32.76
2022-07-29T15:06:51.702Z,32.86
2022-07-29T15:09:19.335Z,33.04
2022-07-29T15:11:46.762Z,33.32
2022-07-29T15:14:14.095Z,33.07
2022-07-29T15:16:43.516Z,32.46
2022-07-29T15:19:11.860Z,32.52
2022-07-29T15:21:41.618Z,32.64
2022-07-29T15:24:19.919Z,32.17
2022-07-29T15:26:50.862Z,32.45
2022-07-29T15:29:18.301Z,32.78
2022-07-29T15:31:45.740Z,32.82
2022-07-29T15:34:13.166Z,32.56
2022-07-29T15:36:56.319Z,32.35
2022-07-29T15:39:29.088Z,32.18
2022-07-29T15:41:56.795Z,32.16
2022-07-29T15:44:24.485Z,31.95
2022-07-29T15:47:06.365Z,31.87
2022-07-29T15:49:47.339Z,31.72
2022-07-29T15:52:24.744Z,31.85
2022-07-29T15:54:55.533Z,31.76
2022-07-29T15:57:23.981Z,31.83
2022-07-29T15:59:52.151Z,31.70
2022-07-29T16:02:19.868Z,31.56
2022-07-29T16:04:47.524Z,31.32
2022-07-29T16:07:15.631Z,31.32
2022-07-29T16:09:44.855Z,31.47
2022-07-29T16:12:16.928Z,31.48
2022-07-29T16:14:44.989Z,31.48
2022-07-29T16:17:14.572Z,31.58
2022-07-29T16:19:43.846Z,31.49
2022-07-29T16:22:12.809Z,31.29
2022-07-29T16:24:40.439Z,31.31
2022-07-29T16:27:07.902Z,31.39
2022-07-29T16:29:37.308Z,31.07
2022-07-29T16:32:06.432Z,30.86
2022-07-29T16:34:34.067Z,30.61
2022-07-29T16:37:02.020Z,30.98
2022-07-29T16:39:32.520Z,30.93
2022-07-29T16:42:06.162Z,30.97
2022-07-29T16:44:36.068Z,30.74
2022-07-29T16:47:08.560Z,30.76
2022-07-29T16:49:36.841Z,30.76
2022-07-29T16:52:04.477Z,30.79
2022-07-29T16:54:31.896Z,30.68
2022-07-29T16:57:02.250Z,30.63
2022-07-29T16:59:30.379Z,30.61
2022-07-29T17:01:58.147Z,30.38
2022-07-29T17:04:27.768Z,30.38
2022-07-29T17:06:55.539Z,30.27
2022-07-29T17:09:23.862Z,30.21
2022-07-29T17:11:55.262Z,30.07
2022-07-29T17:14:25.349Z,29.96
2022-07-29T17:17:01.177Z,29.96
2022-07-29T17:19:35.643Z,29.88
2022-07-29T17:22:18.774Z,29.85
2022-07-29T17:24:47.844Z,29.82
2022-07-29T17:27:16.022Z,29.74
2022-07-29T17:29:43.564Z,29.62
2022-07-29T17:32:12.076Z,29.58
2022-07-29T17:34:41.536Z,29.53
2022-07-29T17:37:10.191Z,29.43
2022-07-29T17:39:41.692Z,29.40
2022-07-29T17:42:10.639Z,29.35
2022-07-29T17:44:39.150Z,29.31
2022-07-29T17:47:07.902Z,29.19
2022-07-29T17:49:38.044Z,28.86
2022-07-29T17:52:05.834Z,28.82
2022-07-29T17:54:33.623Z,28.71
2022-07-29T17:57:01.379Z,28.59
2022-07-29T17:59:29.123Z,28.55
2022-07-29T18:01:56.658Z,28.39
2022-07-29T18:04:24.157Z,28.31
2022-07-29T18:06:51.888Z,28.25
2022-07-29T18:09:19.373Z,28.15
2022-07-29T18:11:48.286Z,28.13
2022-07-29T18:14:15.814Z,28.08
2022-07-29T18:16:43.339Z,27.97
2022-07-29T18:19:10.756Z,27.90
2022-07-29T18:21:51.224Z,27.84
2022-07-29T18:24:27.736Z,27.78
2022-07-29T18:26:55.223Z,27.66
2022-07-29T18:29:22.772Z,27.63
2022-07-29T18:31:50.392Z,27.64
2022-07-29T18:34:17.879Z,27.59
2022-07-29T18:36:46.089Z,27.54
2022-07-29T18:39:20.975Z,27.39
2022-07-29T18:41:51.927Z,27.42
2022-07-29T18:44:22.089Z,27.36
2022-07-29T18:46:51.519Z,27.35
2022-07-29T18:49:19.450Z,27.25
2022-07-29T18:51:47.259Z,27.24
2022-07-29T18:54:14.742Z,27.14
2022-07-29T18:56:42.214Z,27.21
2022-07-29T18:59:09.761Z,27.20
2022-07-29T19:01:38.226Z,27.18
2022-07-29T19:04:05.882Z,27.16
2022-07-29T19:06:33.323Z,27.12
2022-07-29T19:09:01.067Z,27.12
2022-07-29T19:11:28.528Z,27.08
2022-07-29T19:13:56.195Z,26.99
2022-07-29T19:16:25.734Z,26.94
2022-07-29T19:18:53.851Z,26.90
2022-07-29T19:21:25.127Z,26.87
2022-07-29T19:24:01.791Z,26.89
2022-07-29T19:26:36.912Z,26.86
2022-07-29T19:29:04.936Z,26.82
2022-07-29T19:31:32.515Z,26.77
2022-07-29T19:34:00.139Z,26.81
2022-07-29T19:36:27.608Z,26.85
2022-07-29T19:38:55.022Z,26.79
2022-07-29T19:41:24.713Z,26.69
2022-07-29T19:43:53.191Z,26.72
2022-07-29T19:46:24.491Z,26.73
2022-07-29T19:48:53.233Z,26.61
2022-07-29T19:51:20.932Z,26.76
2022-07-29T19:53:48.752Z,26.76
2022-07-29T19:56:16.222Z,26.69
2022-07-29T19:58:44.990Z,26.70
2022-07-29T20:01:12.794Z,26.68
2022-07-29T20:03:40.422Z,26.76
2022-07-29T20:06:08.749Z,26.63
2022-07-29T20:08:36.330Z,26.52
2022-07-29T20:11:04.814Z,26.48
2022-07-29T20:13:33.901Z,26.69
2022-07-29T20:16:05.595Z,26.64
2022-07-29T20:18:35.353Z,26.54
2022-07-29T20:21:04.773Z,26.44
2022-07-29T20:23:33.255Z,26.38
2022-07-29T20:26:01.310Z,26.37
2022-07-29T20:28:28.733Z,26.27
2022-07-29T20:30:56.297Z,26.28
2022-07-29T20:33:23.839Z,26.25
2022-07-29T20:35:51.169Z,26.17
2022-07-29T20:38:18.622Z,26.18
2022-07-29T20:40:46.361Z,26.02
2022-07-29T20:43:13.858Z,25.98
2022-07-29T20:45:41.275Z,25.99
2022-07-29T20:48:10.875Z,26.05
2022-07-29T20:50:38.244Z,25.90
2022-07-29T20:53:05.817Z,25.94
2022-07-29T20:55:33.536Z,25.97
2022-07-29T20:58:00.936Z,25.80
2022-07-29T21:00:29.456Z,25.69
2022-07-29T21:02:57.078Z,25.67
2022-07-29T21:05:24.512Z,25.59
2022-07-29T21:07:56.516Z,25.65
2022-07-29T21:10:25.992Z,25.59
2022-07-29T21:12:55.770Z,25.50
2022-07-29T21:15:27.917Z,25.53
2022-07-29T21:18:06.291Z,25.54
2022-07-29T21:20:33.810Z,25.58
2022-07-29T21:23:01.226Z,25.52
2022-07-29T21:25:29.000Z,25.47
2022-07-29T21:28:15.054Z,25.29
2022-07-29T21:30:42.777Z,25.28
2022-07-29T21:33:10.429Z,25.28
2022-07-29T21:36:10.178Z,25.21
2022-07-29T21:38:27.216Z,25.44
2022-07-29T21:40:55.240Z,25.33
2022-07-29T21:43:24.064Z,25.13
2022-07-29T21:45:51.675Z,25.34
2022-07-29T21:48:20.585Z,25.38
2022-07-29T21:50:49.315Z,25.17
2022-07-29T21:53:17.661Z,25.13
2022-07-29T21:55:51.793Z,25.01
2022-07-29T21:58:24.041Z,24.98
2022-07-29T22:00:51.592Z,24.87
2022-07-29T22:03:18.976Z,24.88
2022-07-29T22:05:46.749Z,24.82
2022-07-29T22:08:14.209Z,24.79
2022-07-29T22:10:41.898Z,24.77
2022-07-29T22:13:09.315Z,24.77
2022-07-29T22:15:36.885Z,24.72
2022-07-29T22:18:04.377Z,24.63
2022-07-29T22:20:31.717Z,24.75
2022-07-29T22:22:59.191Z,24.75
2022-07-29T22:25:27.777Z,24.78
2022-07-29T22:27:55.162Z,24.71
2022-07-29T22:30:22.541Z,24.52
2022-07-29T22:32:50.060Z,24.42
2022-07-29T22:35:18.091Z,24.48
2022-07-29T22:37:45.506Z,24.47
2022-07-29T22:40:13.058Z,24.60
2022-07-29T22:42:41.104Z,24.40
2022-07-29T22:45:10.143Z,24.40
2022-07-29T22:47:46.196Z,24.33
2022-07-29T22:50:17.453Z,24.34
2022-07-29T22:52:45.861Z,24.25
2022-07-29T22:55:13.725Z,24.04
2022-07-29T22:57:41.266Z,24.17
2022-07-29T23:00:09.418Z,24.10
2022-07-29T23:02:37.645Z,24.35
2022-07-29T23:05:05.464Z,24.40
2022-07-29T23:07:34.223Z,24.42
2022-07-29T23:10:02.351Z,24.21
2022-07-29T23:12:32.122Z,24.30
2022-07-29T23:14:59.582Z,24.29
2022-07-29T23:17:26.920Z,24.16
2022-07-29T23:19:54.272Z,24.06
2022-07-29T23:22:21.542Z,24.10
2022-07-29T23:24:48.891Z,24.24
2022-07-29T23:27:16.234Z,24.14
2022-07-29T23:29:43.636Z,24.05
2022-07-29T23:32:10.983Z,23.98
2022-07-29T23:34:38.598Z,23.88
2022-07-29T23:37:06.340Z,24.17
2022-07-29T23:39:33.675Z,24.09
2022-07-29T23:42:01.045Z,24.05
2022-07-29T23:44:28.449Z,24.08
2022-07-29T23:46:55.815Z,24.01
2022-07-29T23:49:23.301Z,24.05
2022-07-29T23:51:50.748Z,23.96
2022-07-29T23:54:18.125Z,23.91
2022-07-29T23:56:45.588Z,23.90
2022-07-29T23:59:13.768Z,23.81
